Latest Coastal Weather Observations for Cape Ferguson

IDQ60701

Issued at 9:21 am EST Thursday 27 April 2017 (issued every 10 minutes, with the page automatically refreshed every 10 minutes)

About coastal observations | Map of coastal stations | Coastal observations for QLD | Marine services | Other Formats
Station Details ID: 032182 Name: CAPE FERGUSON NTC AWS Lat: -19.28 Lon: 147.06 Height: 0.0 m
Data from the previous 72 hours. | See also: Recent months for locations in Queensland
Date/Time
EST
Temp
°C
Wind Pressure Rain since
9am
mm
Weather Cloud Vis
km
Sea
Height
m
Swell
Dir  Spd
kts
Gust
kts
hPa Trend Height
m
Period
s
Dir
27/09:00am 24.7 ENE 3 4 1013.8 - - - - - - - - -
27/08:30am 24.3 SE 1 3 1013.7 - - - - - - - - -
27/08:00am 23.5 WNW 2 3 1013.4 - - - - - - - - -
27/07:30am 23.2 NNW 2 2 1013.2 - - - - - - - - -
27/07:00am 22.7 CALM 0 1 1012.9 - - - - - - - - -
27/06:30am 22.0 WNW 4 7 1012.4 - - - - - - - - -
27/06:00am 23.1 E 1 2 1012.0 - - - - - - - - -
27/05:30am 23.0 NNE 5 7 1011.7 - - - - - - - - -
27/05:00am 22.6 WNW 2 3 1011.9 - - - - - - - - -
27/04:30am 23.0 S 3 5 1011.5 - - - - - - - - -
27/04:00am 22.8 SSW 7 9 1011.6 - - - - - - - - -
27/03:30am 23.4 SW 7 8 1011.5 - - - - - - - - -
27/03:00am 23.1 W 4 7 1011.3 - - - - - - - - -
27/02:30am 23.2 SW 8 9 1011.3 - - - - - - - - -
27/02:00am 22.9 WNW 2 6 1011.5 - - - - - - - - -
27/01:30am 23.3 SW 3 5 1011.9 - - - - - - - - -
27/01:00am 23.8 SW 3 5 1012.3 - - - - - - - - -
27/12:30am 23.9 WSW 1 4 1012.4 - - - - - - - - -
27/12:00am 24.3 S 3 6 1012.6 - - - - - - - - -
 
Date/Time
EST
Temp
°C
Wind Pressure Rain since
9am
mm
Weather Cloud Vis
km
Sea
Height
m
Swell
Dir  Spd
kts
Gust
kts
hPa Trend Height
m
Period
s
Dir
26/11:30pm 24.7 ENE 1 3 1012.6 - - - - - - - - -
26/11:00pm 24.0 NW 2 5 1012.7 - - - - - - - - -
26/10:30pm 24.6 E 2 4 1012.8 - - - - - - - - -
26/10:00pm 23.5 N 5 7 1012.9 - - - - - - - - -
26/09:30pm 23.2 NW 2 6 1013.0 - - - - - - - - -
26/09:00pm 23.9 SSW 1 6 1013.0 - - - - - - - - -
26/08:30pm 24.0 NW 1 3 1012.9 - - - - - - - - -
26/08:00pm 24.6 WNW 2 4 1012.5 - - - - - - - - -
26/07:30pm 24.7 NNW 4 7 1012.2 - - - - - - - - -
26/07:00pm 25.2 NW 3 6 1011.9 - - - - - - - - -
26/06:30pm 24.7 WNW 4 7 1011.6 - - - - - - - - -
26/06:00pm 24.9 NW 4 8 1011.3 - - - - - - - - -
26/05:30pm 25.1 NW 4 9 1011.3 - - - - - - - - -
26/05:00pm 25.5 N 1 5 1011.2 - - - - - - - - -
26/04:30pm 25.6 ENE 4 10 1011.3 - - - - - - - - -
26/04:00pm 25.7 NE 5 13 1011.3 - - - - - - - - -
26/03:30pm 25.9 ENE 6 11 1011.3 - - - - - - - - -
26/03:00pm 25.9 ENE 4 11 1011.4 - - - - - - - - -
26/02:30pm 26.1 NE 5 11 1011.5 - - - - - - - - -
26/02:00pm 25.8 NE 5 10 1012.0 - - - - - - - - -
26/01:30pm 25.6 ENE 5 9 1012.3 - - - - - - - - -
26/01:00pm 25.3 ENE 7 9 1012.7 - - - - - - - - -
26/12:30pm 24.9 ENE 6 8 1013.2 - - - - - - - - -
26/12:00pm 24.9 E 6 8 1013.7 - - - - - - - - -
26/11:30am 24.8 E 5 6 1014.4 - - - - - - - - -
26/11:00am 24.7 ESE 5 6 1014.8 - - - - - - - - -
26/10:30am 24.5 ESE 5 6 1015.0 - - - - - - - - -
26/10:00am 24.3 SE 3 4 1015.2 - - - - - - - - -
26/09:30am 25.7 CALM 0 1 1015.3 - - - - - - - - -
26/09:00am 23.7 SW 2 3 1014.9 - - - - - - - - -
26/08:30am 23.2 SSW 3 4 1014.9 - - - - - - - - -
26/08:00am 23.4 SSW 2 4 1014.7 - - - - - - - - -
26/07:30am 23.8 CALM 0 1 1014.4 - - - - - - - - -
26/07:00am 22.7 CALM 0 2 1014.5 - - - - - - - - -
26/06:30am 22.5 WNW 2 3 1014.3 - - - - - - - - -
26/06:00am 22.5 NW 2 3 1013.8 - - - - - - - - -
26/05:30am 22.0 WNW 2 3 1013.6 - - - - - - - - -
26/05:00am 21.8 NW 3 4 1013.5 - - - - - - - - -
26/04:30am 21.8 WNW 3 3 1013.5 - - - - - - - - -
26/04:00am 22.5 NW 3 4 1013.6 - - - - - - - - -
26/03:30am 22.2 WNW 3 3 1013.5 - - - - - - - - -
26/03:00am 23.0 NW 3 4 1013.6 - - - - - - - - -
26/02:30am 22.2 WNW 3 4 1013.7 - - - - - - - - -
26/02:00am 22.9 WNW 3 3 1013.9 - - - - - - - - -
26/01:30am 22.4 WNW 4 4 1014.1 - - - - - - - - -
26/01:00am 23.5 WNW 2 4 1014.5 - - - - - - - - -
26/12:30am 23.7 WSW 1 2 1014.9 - - - - - - - - -
26/12:00am 24.8 SSE 4 5 1015.0 - - - - - - - - -
 
Date/Time
EST
Temp
°C
Wind Pressure Rain since
9am
mm
Weather Cloud Vis
km
Sea
Height
m
Swell
Dir  Spd
kts
Gust
kts
hPa Trend Height
m
Period
s
Dir
25/11:30pm 25.3 ESE 6 7 1015.3 - - - - - - - - -
25/11:00pm 25.4 E 7 8 1015.4 - - - - - - - - -
25/10:30pm 25.5 ESE 7 8 1015.6 - - - - - - - - -
25/10:00pm 25.6 ESE 7 9 1015.7 - - - - - - - - -
25/09:30pm 25.6 ESE 8 10 1015.7 - - - - - - - - -
25/09:00pm 25.7 E 8 9 1015.7 - - - - - - - - -
25/08:30pm 25.6 E 9 10 1015.5 - - - - - - - - -
25/08:00pm 25.7 E 9 11 1015.2 - - - - - - - - -
25/07:30pm 25.6 E 9 11 1014.8 - - - - - - - - -
25/07:00pm 25.7 E 9 11 1014.5 - - - - - - - - -
25/06:30pm 25.7 ENE 8 10 1014.3 - - - - - - - - -
25/06:00pm 25.4 ENE 7 9 1014.1 - - - - - - - - -
25/05:30pm 25.3 ENE 8 9 1013.9 - - - - - - - - -
25/05:00pm 25.3 ENE 10 12 1013.8 - - - - - - - - -
25/04:30pm 25.2 ENE 10 11 1013.6 - - - - - - - - -
25/04:00pm 25.2 ENE 10 12 1013.3 - - - - - - - - -
25/03:30pm 25.2 E 9 12 1013.4 - - - - - - - - -
25/03:00pm 25.3 ENE 10 12 1013.5 - - - - - - - - -
25/02:30pm 25.3 E 10 12 1013.6 - - - - - - - - -
25/02:00pm 25.1 E 9 11 1013.8 - - - - - - - - -
25/01:30pm 25.1 E 8 10 1014.2 - - - - - - - - -
25/01:00pm 25.0 E 8 9 1014.6 - - - - - - - - -
25/12:30pm 25.1 E 8 9 1015.1 - - - - - - - - -
25/12:00pm 25.0 ESE 7 9 1015.5 - - - - - - - - -
25/11:30am 25.0 SE 8 10 1015.9 - - - - - - - - -
25/11:00am 24.8 SE 7 9 1016.5 - - - - - - - - -
25/10:30am 24.5 SE 8 10 1016.9 - - - - - - - - -
25/10:00am 24.3 SE 8 10 1017.1 - - - - - - - - -
25/09:30am 24.3 SSE 10 13 1017.0 - - - - - - - - -
25/09:00am 24.0 SSE 9 11 1016.9 - - - - - - - - -
25/08:30am 23.9 SSE 9 11 1016.4 - - - - - - - - -
25/08:00am 23.5 SSE 10 13 1016.1 - - - - - - - - -
25/07:30am 23.3 SSE 11 13 1015.8 - - - - - - - - -
25/07:00am 23.2 SSE 11 13 1015.6 - - - - - - - - -
25/06:30am 23.1 SSE 12 14 1015.4 - - - - - - - - -
25/06:00am 23.3 SSE 12 14 1015.3 - - - - - - - - -
25/05:30am 23.2 SSE 11 13 1014.8 - - - - - - - - -
25/05:00am 23.4 SSE 12 14 1014.7 - - - - - - - - -
25/04:30am 23.5 SSE 11 13 1014.5 - - - - - - - - -
25/04:00am 23.5 SSE 12 14 1014.2 - - - - - - - - -
25/03:30am 23.6 SSE 11 13 1014.3 - - - - - - - - -
25/03:00am 23.6 SSE 8 11 1014.3 - - - - - - - - -
25/02:30am 23.6 SSE 10 13 1014.5 - - - - - - - - -
25/02:00am 23.8 SSE 11 13 1014.8 - - - - - - - - -
25/01:30am 24.1 SSE 8 11 1015.1 - - - - - - - - -
25/01:00am 24.1 SSE 7 9 1015.5 - - - - - - - - -
25/12:30am 24.3 SSE 7 9 1016.1 - - - - - - - - -
25/12:00am 24.3 SSE 7 9 1016.4 - - - - - - - - -
 
Date/Time
EST
Temp
°C
Wind Pressure Rain since
9am
mm
Weather Cloud Vis
km
Sea
Height
m
Swell
Dir  Spd
kts
Gust
kts
hPa Trend Height
m
Period
s
Dir
24/11:30pm 24.6 SSE 9 11 1016.6 - - - - - - - - -
24/11:00pm 24.5 SSE 9 11 1016.6 - - - - - - - - -
24/10:30pm 24.8 SE 9 15 1016.8 - - - - - - - - -
24/10:00pm 25.4 ESE 15 19 1017.0 - - - - - - - - -
24/09:30pm 25.5 ESE 15 18 1017.2 - - - - - - - - -
24/09:00pm 25.5 ESE 15 18 1017.2 - - - - - - - - -
24/08:30pm 25.8 E 15 18 1017.1 - - - - - - - - -
24/08:00pm 25.6 E 16 20 1016.8 - - - - - - - - -
24/07:30pm 25.6 ESE 16 19 1016.5 - - - - - - - - -
24/07:00pm 25.5 E 16 20 1016.2 - - - - - - - - -
24/06:30pm 25.3 E 14 17 1015.8 - - - - - - - - -
24/06:00pm 25.3 ESE 16 19 1015.7 - - - - - - - - -
24/05:30pm 25.4 ESE 15 20 1015.5 - - - - - - - - -
24/05:00pm 25.3 E 13 17 1015.2 - - - - - - - - -
24/04:30pm 25.1 E 14 17 1015.2 - - - - - - - - -
24/04:00pm 25.5 E 16 18 1014.9 - - - - - - - - -
24/03:30pm 25.4 E 13 17 1014.8 - - - - - - - - -
24/03:00pm 25.0 E 16 20 1014.8 - - - - - - - - -
24/02:30pm 25.2 E 17 20 1014.9 - - - - - - - - -
24/02:00pm 25.2 E 19 23 1014.9 - - - - - - - - -
24/01:30pm 25.6 E 15 19 1015.3 - - - - - - - - -
24/01:00pm 25.5 E 15 18 1015.8 - - - - - - - - -
24/12:30pm 25.5 ESE 13 17 1015.9 - - - - - - - - -
24/12:00pm 25.6 ESE 12 14 1016.2 - - - - - - - - -
24/11:30am 25.3 ESE 9 11 1016.5 - - - - - - - - -
24/11:00am 25.3 SE 11 13 1016.9 - - - - - - - - -
24/10:30am 24.8 SE 11 13 1017.2 - - - - - - - - -
24/10:00am 24.5 SSE 10 13 1017.5 - - - - - - - - -
24/09:30am 24.0 SSE 12 15 1017.5 - - - - - - - - -

Other Formats:

Comma delimited format used in spreadsheet applications
http://www.bom.gov.au/fwo/IDQ60701/IDQ60701.94297.axf

JavaScript Object Notation format (JSON) in row-major order
http://www.bom.gov.au/fwo/IDQ60701/IDQ60701.94297.json